Time;durP1;ratioP1;P1;durP2;ratioP2;P2;SDS_P1;SDS_P2;PMS_P1;PMS_P2;Temp;Humidity;BMP_temperature;BMP_pressure;BME280_temperature;BME280_humidity;BME280_pressure;Samples;Min_cycle;Max_cycle;Signal;HPM_P1;HPM_P2
2023/07/01 00:00:44;;;;;;;4.07;1.80;;;;;;;24.69;41.02;100812.16;4998965;28;20049;-30
2023/07/01 00:03:11;;;;;;;6.85;2.10;;;;;;;24.69;40.26;100799.44;4999244;28;20050;-30
2023/07/01 00:05:38;;;;;;;3.80;2.08;;;;;;;24.69;40.92;100799.44;4996473;28;20078;-31
2023/07/01 00:08:04;;;;;;;5.10;2.30;;;;;;;24.69;40.64;100801.31;4998266;28;20140;-29
2023/07/01 00:10:31;;;;;;;5.68;2.60;;;;;;;24.67;40.53;100797.94;4997691;28;20054;-29
2023/07/01 00:12:57;;;;;;;4.15;1.90;;;;;;;24.66;40.52;100797.09;5001166;28;20065;-30
2023/07/01 00:15:24;;;;;;;4.82;1.92;;;;;;;24.65;40.93;100787.31;5001087;28;20080;-30
2023/07/01 00:17:51;;;;;;;5.55;2.17;;;;;;;24.64;41.06;100782.91;4998713;28;20112;-30
2023/07/01 00:20:17;;;;;;;4.35;2.20;;;;;;;24.62;41.15;100785.81;4998632;28;20054;-29
2023/07/01 00:22:44;;;;;;;4.20;1.90;;;;;;;24.61;40.90;100778.72;4998802;28;20572;-29
2023/07/01 00:25:10;;;;;;;4.90;2.10;;;;;;;24.59;41.10;100777.25;4998454;28;20076;-29
2023/07/01 00:27:37;;;;;;;5.07;2.00;;;;;;;24.58;41.29;100768.28;5000727;28;20086;-29
2023/07/01 00:30:04;;;;;;;4.10;2.13;;;;;;;24.56;41.33;100766.81;5003688;28;20085;-30
2023/07/01 00:32:31;;;;;;;4.63;2.00;;;;;;;24.54;41.66;100758.88;5000989;28;20353;-29
2023/07/01 00:34:58;;;;;;;4.30;2.15;;;;;;;24.53;41.22;100754.50;5003868;28;20052;-30
2023/07/01 00:37:24;;;;;;;7.78;2.00;;;;;;;24.52;41.57;100755.56;5003162;28;20046;-30
2023/07/01 00:39:51;;;;;;;5.32;2.30;;;;;;;24.51;41.73;100743.00;5001467;28;20045;-29
2023/07/01 00:42:18;;;;;;;6.13;2.33;;;;;;;24.51;41.70;100736.75;5003259;28;20046;-29
2023/07/01 00:44:44;;;;;;;3.88;1.77;;;;;;;24.50;41.95;100722.38;5001608;28;20137;-29
2023/07/01 00:47:12;;;;;;;4.78;2.15;;;;;;;24.49;41.92;100718.00;5004183;28;20096;-29
2023/07/01 00:49:39;;;;;;;4.10;2.17;;;;;;;24.47;42.31;100717.34;5002077;28;20132;-29
2023/07/01 00:52:06;;;;;;;6.78;2.85;;;;;;;24.46;41.75;100712.16;5003928;28;20132;-29
2023/07/01 00:54:34;;;;;;;3.63;1.83;;;;;;;24.46;42.64;100715.69;5001805;28;20113;-30
2023/07/01 00:57:04;;;;;;;4.32;1.90;;;;;;;24.44;41.87;100709.63;5003936;28;20615;-29
2023/07/01 00:59:34;;;;;;;4.85;1.83;;;;;;;24.43;42.39;100702.53;5000089;28;20050;-31
2023/07/01 01:02:29;;;;;;;4.63;1.83;;;;;;;24.41;42.84;100701.91;5002675;28;20112;-29
2023/07/01 01:05:10;;;;;;;6.65;1.95;;;;;;;24.41;42.31;100699.19;5004806;28;20046;-29
2023/07/01 01:08:11;;;;;;;6.28;2.42;;;;;;;24.38;42.49;100703.13;5005741;28;20062;-30
2023/07/01 01:10:43;;;;;;;6.15;2.17;;;;;;;24.40;42.49;100699.38;4996660;28;20050;-29
2023/07/01 01:13:11;;;;;;;4.40;1.75;;;;;;;24.39;42.68;100698.53;5002766;28;20395;-30
2023/07/01 01:15:41;;;;;;;4.05;1.88;;;;;;;24.38;42.94;100694.19;5007631;28;20341;-29
2023/07/01 01:18:10;;;;;;;6.28;1.98;;;;;;;24.37;42.45;100681.63;5007174;28;20074;-29
2023/07/01 01:20:39;;;;;;;5.93;2.28;;;;;;;24.36;42.89;100686.22;5007974;28;20113;-29
2023/07/01 01:23:13;;;;;;;5.30;1.98;;;;;;;24.35;43.17;100683.69;5000958;28;20234;-31
2023/07/01 01:25:49;;;;;;;3.70;1.95;;;;;;;24.33;42.68;100678.50;5009539;28;20430;-29
2023/07/01 01:28:16;;;;;;;6.28;2.28;;;;;;;24.32;43.19;100675.97;5007875;28;20041;-29
2023/07/01 01:30:42;;;;;;;4.50;1.90;;;;;;;24.31;43.01;100667.00;5007104;28;20381;-30
2023/07/01 01:33:09;;;;;;;4.55;2.10;;;;;;;24.30;43.31;100665.34;5005379;28;20054;-30
2023/07/01 01:35:36;;;;;;;4.13;2.08;;;;;;;24.30;42.80;100675.34;5008956;28;20080;-29
2023/07/01 01:38:16;;;;;;;5.88;2.08;;;;;;;24.28;43.14;100656.59;5000076;28;20059;-29
2023/07/01 01:41:13;;;;;;;3.40;1.58;;;;;;;24.27;43.43;100657.59;5001775;28;20061;-29
2023/07/01 01:43:56;;;;;;;6.30;2.45;;;;;;;24.28;42.96;100653.00;4996675;28;20100;-29
2023/07/01 01:46:25;;;;;;;4.25;2.00;;;;;;;24.29;42.88;100649.28;5002804;28;20077;-29
2023/07/01 01:48:56;;;;;;;5.45;1.95;;;;;;;24.28;43.21;100643.03;5000134;28;20050;-29
2023/07/01 01:51:24;;;;;;;7.93;1.90;;;;;;;24.27;42.85;100635.94;5003015;28;20047;-29
2023/07/01 01:53:52;;;;;;;4.05;2.00;;;;;;;24.26;43.50;100633.44;4996220;28;20133;-29
2023/07/01 01:56:20;;;;;;;4.20;1.88;;;;;;;24.27;43.49;100643.22;4999141;28;20049;-30
2023/07/01 01:58:47;;;;;;;5.55;2.22;;;;;;;24.24;43.00;100630.94;5000516;28;20255;-30
2023/07/01 02:01:15;;;;;;;5.93;1.98;;;;;;;24.23;43.12;100623.81;5001001;28;20046;-29
2023/07/01 02:03:44;;;;;;;4.03;1.67;;;;;;;24.22;43.00;100622.16;5000212;28;20046;-29
2023/07/01 02:06:11;;;;;;;5.45;1.75;;;;;;;24.22;43.27;100624.03;5002508;28;20480;-29
2023/07/01 02:08:38;;;;;;;4.13;1.67;;;;;;;24.21;43.25;100625.91;4998113;28;20461;-29
2023/07/01 02:11:05;;;;;;;3.58;1.60;;;;;;;24.20;43.34;100613.41;5014812;28;20129;-29
2023/07/01 02:13:31;;;;;;;3.85;1.38;;;;;;;24.21;43.17;100611.53;5000047;28;20141;-29
2023/07/01 02:15:58;;;;;;;6.55;1.92;;;;;;;24.21;43.72;100619.66;5000657;28;20081;-29
2023/07/01 02:18:24;;;;;;;4.90;1.70;;;;;;;24.20;43.55;100617.97;4999877;28;20133;-29
2023/07/01 02:20:51;;;;;;;5.00;2.03;;;;;;;24.19;43.56;100610.88;5001737;28;20049;-29
2023/07/01 02:23:18;;;;;;;5.30;1.95;;;;;;;24.17;43.45;100605.69;4996668;28;20057;-29
2023/07/01 02:25:45;;;;;;;5.07;2.17;;;;;;;24.16;44.05;100595.03;5000706;28;20110;-29
2023/07/01 02:28:13;;;;;;;3.85;1.70;;;;;;;24.14;43.32;100604.19;5000370;28;20485;-29
2023/07/01 02:30:40;;;;;;;4.88;1.73;;;;;;;24.14;44.00;100600.66;4998289;28;20060;-29
2023/07/01 02:33:06;;;;;;;6.75;2.00;;;;;;;24.12;43.96;100603.59;4999591;28;20315;-29
2023/07/01 02:35:33;;;;;;;3.75;1.80;;;;;;;24.12;43.78;100591.88;4996221;28;20047;-29
2023/07/01 02:37:59;;;;;;;3.60;1.85;;;;;;;24.11;43.58;100593.75;5000014;28;20050;-29
2023/07/01 02:40:26;;;;;;;2.83;1.75;;;;;;;24.10;43.65;100586.69;4999787;28;20068;-29
2023/07/01 02:42:53;;;;;;;5.00;1.60;;;;;;;24.11;43.81;100591.06;4999201;28;20137;-29
2023/07/01 02:45:19;;;;;;;4.55;1.92;;;;;;;24.09;44.38;100589.59;4997612;28;20129;-29
2023/07/01 02:47:46;;;;;;;5.72;1.70;;;;;;;24.09;44.09;100587.72;5000298;28;20074;-29
2023/07/01 02:50:13;;;;;;;3.95;1.80;;;;;;;24.08;44.10;100583.34;4997540;28;20087;-29
2023/07/01 02:52:39;;;;;;;7.38;1.83;;;;;;;24.07;44.02;100578.94;4998587;28;20097;-29
2023/07/01 02:55:06;;;;;;;4.22;2.03;;;;;;;24.06;44.22;100580.00;5001429;28;20509;-30
2023/07/01 02:57:33;;;;;;;2.30;1.42;;;;;;;24.06;43.89;100568.34;4998711;28;20116;-29
2023/07/01 02:59:59;;;;;;;2.63;1.65;;;;;;;24.05;44.17;100572.91;5000552;28;20058;-29
2023/07/01 03:02:26;;;;;;;4.38;1.88;;;;;;;24.04;44.26;100570.38;4999590;28;20125;-29
2023/07/01 03:04:53;;;;;;;3.17;1.83;;;;;;;24.04;44.60;100570.38;5003789;28;20153;-29
2023/07/01 03:07:20;;;;;;;5.80;2.05;;;;;;;24.05;44.43;100572.09;5005575;28;20112;-29
2023/07/01 03:09:46;;;;;;;2.83;1.50;;;;;;;24.04;44.61;100564.97;5002640;28;20422;-30
2023/07/01 03:12:13;;;;;;;6.25;1.75;;;;;;;24.04;44.26;100563.13;5003248;28;20046;-29
2023/07/01 03:14:40;;;;;;;4.22;1.75;;;;;;;24.02;44.64;100567.91;5008625;28;20188;-29
2023/07/01 03:17:06;;;;;;;4.70;2.05;;;;;;;24.03;44.67;100564.16;5002826;28;20386;-30
2023/07/01 03:19:34;;;;;;;3.22;1.40;;;;;;;24.03;44.41;100556.03;5004157;28;20050;-29
2023/07/01 03:22:00;;;;;;;6.40;1.80;;;;;;;24.03;44.69;100558.72;5003793;28;20105;-29
2023/07/01 03:24:33;;;;;;;4.15;1.50;;;;;;;24.02;44.74;100557.06;5003621;28;20381;-29
2023/07/01 03:27:03;;;;;;;3.92;1.17;;;;;;;24.02;44.60;100540.81;4998647;28;20131;-29
2023/07/01 03:29:30;;;;;;;3.05;1.75;;;;;;;24.02;44.82;100542.69;5004444;28;20108;-29
2023/07/01 03:31:57;;;;;;;3.15;1.88;;;;;;;24.02;45.12;100542.69;4999724;28;20243;-29
2023/07/01 03:34:24;;;;;;;6.00;1.80;;;;;;;24.01;44.61;100538.31;5001017;28;20145;-30
2023/07/01 03:36:50;;;;;;;4.85;1.70;;;;;;;24.00;44.88;100534.78;4999810;28;20057;-29
2023/07/01 03:39:17;;;;;;;2.15;1.50;;;;;;;24.00;45.27;100534.78;4997547;28;20393;-29
2023/07/01 03:41:45;;;;;;;4.53;1.85;;;;;;;23.99;44.64;100519.56;4999663;28;20050;-29
2023/07/01 03:44:11;;;;;;;3.05;1.70;;;;;;;23.98;45.25;100509.78;4999128;28;20050;-29
2023/07/01 03:46:38;;;;;;;4.00;1.70;;;;;;;23.98;44.79;100515.19;5000656;28;20052;-29
2023/07/01 03:49:05;;;;;;;3.72;1.80;;;;;;;23.98;45.17;100514.34;4996604;28;20089;-29
2023/07/01 03:51:32;;;;;;;2.85;1.38;;;;;;;23.98;45.16;100508.94;4996754;28;20058;-30
2023/07/01 03:53:59;;;;;;;5.22;2.08;;;;;;;23.97;45.03;100518.09;4997229;28;20050;-30
2023/07/01 03:56:26;;;;;;;5.05;1.65;;;;;;;23.96;44.93;100511.84;4997380;28;20046;-30
2023/07/01 03:58:53;;;;;;;3.50;1.40;;;;;;;23.95;44.90;100512.88;4998389;28;20053;-30
2023/07/01 04:01:21;;;;;;;3.45;1.60;;;;;;;23.95;45.31;100501.22;4996653;28;20062;-29
2023/07/01 04:03:53;;;;;;;3.92;1.73;;;;;;;23.94;45.47;100504.97;5002626;28;20046;-29
2023/07/01 04:06:20;;;;;;;2.88;1.40;;;;;;;23.94;45.21;100508.50;5002639;28;20093;-30
2023/07/01 04:08:54;;;;;;;4.85;1.48;;;;;;;23.93;45.73;100498.72;5001479;28;20057;-30
2023/07/01 04:11:21;;;;;;;3.85;1.50;;;;;;;23.92;45.44;100499.75;5002065;28;20050;-30
2023/07/01 04:13:48;;;;;;;2.67;1.58;;;;;;;23.91;45.50;100492.66;5003398;28;20399;-30
2023/07/01 04:16:15;;;;;;;4.75;1.50;;;;;;;23.90;45.46;100488.28;5003673;28;20070;-30
2023/07/01 04:18:42;;;;;;;3.92;1.48;;;;;;;23.90;45.59;100488.28;5002287;28;20060;-30
2023/07/01 04:21:08;;;;;;;4.80;1.77;;;;;;;23.91;45.67;100483.69;5003083;28;20511;-30
2023/07/01 04:23:36;;;;;;;3.15;1.60;;;;;;;23.88;45.63;100480.38;5002062;28;20049;-30
2023/07/01 04:26:04;;;;;;;4.03;1.85;;;;;;;23.88;45.88;100479.53;5001925;28;20047;-30
2023/07/01 04:28:30;;;;;;;3.92;1.55;;;;;;;23.88;45.91;100484.97;5002613;28;20056;-29
2023/07/01 04:30:57;;;;;;;2.88;1.70;;;;;;;23.88;45.64;100479.53;5004385;28;20041;-30
2023/07/01 04:33:24;;;;;;;5.45;1.42;;;;;;;23.87;45.91;100480.56;5003770;28;20050;-30
2023/07/01 04:35:51;;;;;;;4.18;1.70;;;;;;;23.87;46.15;100485.97;5001713;28;20057;-30
2023/07/01 04:38:17;;;;;;;3.03;1.60;;;;;;;23.86;45.89;100468.91;5001209;28;20133;-30
2023/07/01 04:40:44;;;;;;;4.18;1.58;;;;;;;23.86;45.86;100471.59;5004642;28;20446;-30
2023/07/01 04:43:11;;;;;;;1.77;1.20;;;;;;;23.85;46.31;100469.13;5002448;28;20045;-30
2023/07/01 04:45:41;;;;;;;2.67;1.58;;;;;;;23.86;45.74;100471.59;5004539;28;20896;-30
2023/07/01 04:48:08;;;;;;;6.05;1.65;;;;;;;23.86;45.88;100465.38;5002873;28;20050;-30
2023/07/01 04:50:34;;;;;;;2.58;1.63;;;;;;;23.85;45.69;100469.94;5004126;28;20390;-30
2023/07/01 04:53:01;;;;;;;1.95;1.48;;;;;;;23.85;46.18;100466.41;5001764;28;20414;-30
2023/07/01 04:55:28;;;;;;;1.70;1.30;;;;;;;23.84;46.15;100464.72;5002828;28;20416;-30
2023/07/01 04:57:54;;;;;;;1.95;1.45;;;;;;;23.83;46.08;100466.59;5004453;28;20526;-30
2023/07/01 05:00:21;;;;;;;2.67;1.55;;;;;;;23.84;46.52;100468.28;5001422;28;20093;-30
2023/07/01 05:02:47;;;;;;;2.55;1.50;;;;;;;23.82;46.23;100462.22;5003416;28;20046;-29
2023/07/01 05:05:14;;;;;;;3.28;1.90;;;;;;;23.82;46.38;100461.38;5002123;28;20292;-30
2023/07/01 05:07:42;;;;;;;3.97;1.70;;;;;;;23.82;46.54;100461.38;5000256;28;20056;-30
2023/07/01 05:10:09;;;;;;;2.83;1.27;;;;;;;23.81;46.27;100457.84;5005056;28;20053;-30
2023/07/01 05:12:36;;;;;;;3.50;1.75;;;;;;;23.80;46.38;100450.78;5000012;28;20046;-29
2023/07/01 05:15:03;;;;;;;3.83;1.45;;;;;;;23.81;46.80;100455.16;4998813;28;20418;-30
2023/07/01 05:17:29;;;;;;;4.45;1.52;;;;;;;23.80;46.83;100448.06;4999646;28;20053;-30
2023/07/01 05:19:56;;;;;;;3.40;2.00;;;;;;;23.80;46.55;100448.06;5000010;28;20101;-30
2023/07/01 05:22:23;;;;;;;2.88;1.67;;;;;;;23.79;46.73;100443.66;4995593;28;20430;-30
2023/07/01 05:24:50;;;;;;;2.67;1.63;;;;;;;23.79;46.77;100442.84;4998609;28;20120;-30
2023/07/01 05:27:16;;;;;;;2.20;1.17;;;;;;;23.80;46.44;100444.50;4999705;28;20519;-30
2023/07/01 05:29:43;;;;;;;2.88;1.92;;;;;;;23.81;46.59;100446.19;5003302;28;20070;-29
2023/07/01 05:32:09;;;;;;;3.83;1.58;;;;;;;23.81;46.84;100446.19;4998827;28;20049;-30
2023/07/01 05:34:37;;;;;;;2.55;1.40;;;;;;;23.81;46.42;100452.44;5005900;28;20143;-30
2023/07/01 05:37:04;;;;;;;3.55;1.58;;;;;;;23.82;46.92;100447.84;5003552;28;20108;-30
2023/07/01 05:39:30;;;;;;;1.90;1.40;;;;;;;23.81;47.18;100443.50;5006964;28;20112;-29
2023/07/01 05:41:57;;;;;;;3.22;1.40;;;;;;;23.81;47.20;100451.59;5001488;28;20438;-30
2023/07/01 05:44:27;;;;;;;3.65;1.48;;;;;;;23.79;47.06;100440.13;5002720;28;20442;-30
2023/07/01 05:46:54;;;;;;;1.88;1.25;;;;;;;23.79;46.77;100440.97;5003670;28;20418;-30
2023/07/01 05:49:20;;;;;;;3.25;1.58;;;;;;;23.79;46.82;100442.84;5002793;28;20096;-29
2023/07/01 05:51:47;;;;;;;2.95;1.90;;;;;;;23.78;47.13;100444.72;5004044;28;20081;-30
2023/07/01 05:54:13;;;;;;;4.43;1.88;;;;;;;23.77;46.84;100439.53;5003136;28;20077;-30
2023/07/01 05:56:40;;;;;;;3.75;1.95;;;;;;;23.76;47.35;100435.97;5005910;28;20088;-31
2023/07/01 05:59:07;;;;;;;3.72;1.95;;;;;;;23.75;47.18;100442.41;5003066;28;20153;-31
2023/07/01 06:01:33;;;;;;;3.03;1.85;;;;;;;23.76;47.13;100435.13;5001406;28;20385;-30
2023/07/01 06:04:01;;;;;;;3.70;2.05;;;;;;;23.76;47.49;100443.22;4998258;28;20058;-31
2023/07/01 06:06:28;;;;;;;2.78;2.03;;;;;;;23.75;47.27;100438.88;4998855;28;20041;-31
2023/07/01 06:08:54;;;;;;;4.03;2.03;;;;;;;23.74;47.73;100439.91;5002993;28;20057;-31
2023/07/01 06:11:21;;;;;;;5.63;2.85;;;;;;;23.74;47.78;100435.31;5000814;28;20050;-31
2023/07/01 06:13:50;;;;;;;5.05;3.10;;;;;;;23.74;47.47;100434.50;5003633;28;20060;-31
2023/07/01 06:16:17;;;;;;;3.53;2.42;;;;;;;23.73;47.62;100428.25;5003971;28;20046;-31
2023/07/01 06:18:44;;;;;;;5.78;3.72;;;;;;;23.73;47.40;100433.66;5000068;28;20617;-31
2023/07/01 06:21:10;;;;;;;9.10;3.55;;;;;;;23.74;47.37;100439.91;5000265;28;20442;-31
2023/07/01 06:23:38;;;;;;;5.55;3.80;;;;;;;23.74;47.96;100429.09;4998181;28;20054;-30
2023/07/01 06:26:05;;;;;;;5.78;3.95;;;;;;;23.74;48.11;100435.31;4999278;28;20046;-31
2023/07/01 06:28:32;;;;;;;7.18;4.07;;;;;;;23.74;48.29;100435.31;4998468;28;20053;-30
2023/07/01 06:30:59;;;;;;;31.60;10.00;;;;;;;23.75;48.89;100436.16;4983387;28;20058;-32
2023/07/01 06:33:25;;;;;;;22.02;7.90;;;;;;;23.73;49.93;100430.13;4991716;28;20108;-32
2023/07/01 06:35:52;;;;;;;22.90;8.98;;;;;;;23.71;50.48;100432.19;4993170;28;20050;-32
2023/07/01 06:38:19;;;;;;;19.13;8.43;;;;;;;23.73;50.32;100430.13;4992228;28;20218;-32
2023/07/01 06:40:45;;;;;;;14.15;6.63;;;;;;;23.69;51.94;100426.16;4994642;28;20050;-33
2023/07/01 06:43:13;;;;;;;14.60;7.15;;;;;;;23.68;52.40;100424.47;4963421;28;20338;-32
2023/07/01 06:45:40;;;;;;;10.82;4.93;;;;;;;23.64;52.43;100424.84;5008452;28;20131;-32
2023/07/01 06:48:06;;;;;;;10.07;4.75;;;;;;;23.61;52.22;100422.56;4988983;28;20072;-33
2023/07/01 06:50:34;;;;;;;8.80;5.18;;;;;;;23.61;52.88;100427.97;4992714;28;20401;-33
2023/07/01 06:53:01;;;;;;;14.88;5.80;;;;;;;23.61;52.89;100427.97;4993713;28;20406;-32
2023/07/01 06:55:28;;;;;;;10.02;5.45;;;;;;;23.63;52.62;100425.03;4992635;28;20076;-33
2023/07/01 06:57:55;;;;;;;10.18;4.90;;;;;;;23.63;52.85;100423.16;4994644;28;20224;-33
2023/07/01 07:00:21;;;;;;;13.80;5.25;;;;;;;23.64;53.20;100430.28;4992485;28;20052;-31
2023/07/01 07:02:48;;;;;;;46.97;7.43;;;;;;;23.63;53.40;100423.16;4991905;28;20077;-34
2023/07/01 07:05:15;;;;;;;15.05;5.30;;;;;;;23.59;54.28;100423.78;4963572;28;20068;-35
2023/07/01 07:07:41;;;;;;;20.45;4.65;;;;;;;23.59;53.70;100421.91;4993039;28;20437;-34
2023/07/01 07:10:08;;;;;;;10.55;4.40;;;;;;;23.63;53.67;100416.91;4989694;28;20643;-32
2023/07/01 07:12:35;;;;;;;20.67;9.95;;;;;;;23.68;53.39;100421.75;4990824;28;20163;-31
2023/07/01 07:15:02;;;;;;;12.45;6.47;;;;;;;23.67;53.68;100422.81;4993421;28;20108;-31
2023/07/01 07:17:28;;;;;;;13.52;8.20;;;;;;;23.68;53.95;100424.47;5001992;28;20046;-33
2023/07/01 07:19:55;;;;;;;25.45;7.00;;;;;;;23.66;53.61;100427.38;5002929;28;20604;-36
2023/07/01 07:22:22;;;;;;;10.20;6.28;;;;;;;23.64;54.16;100419.44;4989455;28;20142;-31
2023/07/01 07:24:48;;;;;;;9.63;6.15;;;;;;;23.64;53.64;100421.31;4961945;28;20371;-32
2023/07/01 07:27:15;;;;;;;10.60;5.60;;;;;;;23.62;54.31;100421.50;5004457;28;20081;-33
2023/07/01 07:29:41;;;;;;;9.38;5.32;;;;;;;23.62;54.27;100415.25;5008423;28;20053;-32
2023/07/01 07:32:08;;;;;;;6.43;4.38;;;;;;;23.60;54.38;100412.78;5006168;28;20054;-33
2023/07/01 07:34:36;;;;;;;6.18;3.90;;;;;;;23.58;54.81;100417.53;5003449;28;20061;-35
2023/07/01 07:37:04;;;;;;;6.88;4.63;;;;;;;23.57;54.64;100420.44;5005351;28;20168;-33
2023/07/01 07:39:31;;;;;;;5.50;3.67;;;;;;;23.57;54.77;100423.97;5004382;28;20057;-33
2023/07/01 07:41:57;;;;;;;5.15;3.90;;;;;;;23.56;54.62;100421.50;5007919;28;20080;-33
2023/07/01 07:44:24;;;;;;;6.68;3.72;;;;;;;23.53;54.90;100417.31;4981085;28;20061;-33
2023/07/01 07:46:51;;;;;;;4.93;3.40;;;;;;;23.52;55.10;100422.94;5010808;28;20622;-32
2023/07/01 07:49:18;;;;;;;5.25;3.53;;;;;;;23.49;55.31;100417.91;5008659;28;20081;-33
2023/07/01 07:51:44;;;;;;;3.65;2.97;;;;;;;23.47;55.78;100409.97;5002394;28;20358;-33
2023/07/01 07:54:11;;;;;;;4.95;3.13;;;;;;;23.46;55.91;100413.72;5000376;28;20054;-33
2023/07/01 07:56:37;;;;;;;4.25;2.88;;;;;;;23.46;55.52;100402.91;5010712;28;20124;-33
2023/07/01 07:59:04;;;;;;;5.00;3.35;;;;;;;23.44;55.70;100410.41;5012488;28;20357;-32
2023/07/01 08:01:31;;;;;;;4.45;2.88;;;;;;;23.45;55.52;100409.34;5005221;28;20060;-33
2023/07/01 08:03:58;;;;;;;3.40;2.85;;;;;;;23.43;55.47;100419.53;4981877;28;20141;-33
2023/07/01 08:06:24;;;;;;;3.38;2.45;;;;;;;23.42;55.95;100407.03;5012807;28;20046;-32
2023/07/01 08:08:51;;;;;;;3.15;2.53;;;;;;;23.43;56.41;100410.59;5004744;28;20077;-33
2023/07/01 08:11:18;;;;;;;4.75;2.80;;;;;;;23.44;56.05;100405.00;5003042;28;20053;-33
2023/07/01 08:13:44;;;;;;;4.55;2.60;;;;;;;23.44;56.59;100406.84;4991268;28;20396;-33
2023/07/01 08:16:12;;;;;;;3.00;2.35;;;;;;;23.44;55.61;100405.00;4994702;28;20042;-32
2023/07/01 08:18:39;;;;;;;4.00;2.60;;;;;;;23.44;56.15;100396.00;4990308;28;20054;-32
2023/07/01 08:21:06;;;;;;;3.47;2.50;;;;;;;23.44;56.10;100396.00;4993351;28;20050;-33
2023/07/01 08:23:32;;;;;;;3.88;2.85;;;;;;;23.44;56.10;100396.88;4952309;28;20203;-32
2023/07/01 08:25:59;;;;;;;3.25;2.75;;;;;;;23.45;55.98;100400.41;5008095;28;20069;-33
2023/07/01 08:28:31;;;;;;;4.70;3.65;;;;;;;23.46;56.36;100404.78;4992447;28;20516;-33
2023/07/01 08:30:58;;;;;;;4.13;3.00;;;;;;;23.47;56.10;100401.03;4995682;28;20457;-32
2023/07/01 08:33:26;;;;;;;2.92;2.55;;;;;;;23.45;56.69;100401.25;4997407;28;20111;-33
2023/07/01 08:35:52;;;;;;;4.93;3.20;;;;;;;23.45;56.87;100403.13;4994128;28;20065;-33
2023/07/01 08:38:19;;;;;;;3.83;3.03;;;;;;;23.45;56.12;100393.13;4997881;28;20077;-32
2023/07/01 08:40:50;;;;;;;4.22;2.85;;;;;;;23.48;56.81;100394.56;4996869;28;20049;-32
2023/07/01 08:43:20;;;;;;;3.20;2.78;;;;;;;23.47;56.65;100398.31;4968023;28;20116;-33
2023/07/01 08:45:50;;;;;;;3.80;2.35;;;;;;;23.46;56.65;100402.91;5014369;28;20099;-33
2023/07/01 08:48:21;;;;;;;2.47;2.25;;;;;;;23.48;57.25;100392.72;5005632;28;20049;-33
2023/07/01 08:50:58;;;;;;;2.55;2.00;;;;;;;23.46;57.43;100400.19;5002260;28;20085;-33
2023/07/01 08:53:26;;;;;;;2.88;1.92;;;;;;;23.47;57.00;100398.31;4988822;28;20424;-33
2023/07/01 08:55:54;;;;;;;3.55;2.33;;;;;;;23.47;57.51;100399.16;4996538;28;20078;-32
2023/07/01 08:58:22;;;;;;;4.75;2.42;;;;;;;23.49;56.85;100394.41;4995112;28;20065;-33
2023/07/01 09:00:49;;;;;;;5.65;3.05;;;;;;;23.51;56.85;100392.31;4997288;28;20505;-33
2023/07/01 09:03:16;;;;;;;3.53;2.50;;;;;;;23.51;57.21;100389.59;5003481;28;20069;-33
2023/07/01 09:05:43;;;;;;;4.05;2.80;;;;;;;23.50;57.38;100387.13;4965531;28;20148;-33
2023/07/01 09:08:09;;;;;;;4.90;3.85;;;;;;;23.50;57.99;100396.06;5006742;28;20041;-33
2023/07/01 09:10:36;;;;;;;3.55;2.63;;;;;;;23.50;57.71;100387.13;5009138;28;20416;-34
2023/07/01 09:13:13;;;;;;;6.65;4.53;;;;;;;23.49;58.25;100393.56;4995821;28;20164;-34
2023/07/01 09:15:44;;;;;;;3.35;2.30;;;;;;;23.51;58.25;100392.31;4999329;28;20065;-34
2023/07/01 09:18:29;;;;;;;4.80;3.22;;;;;;;23.45;59.15;100384.19;5000849;28;20055;-32
2023/07/01 09:20:59;;;;;;;4.40;3.25;;;;;;;23.47;58.60;100384.81;4999891;28;20050;-32
2023/07/01 09:23:38;;;;;;;6.18;2.78;;;;;;;23.46;58.48;100380.44;4964347;28;20052;-32
2023/07/01 09:26:10;;;;;;;3.67;2.70;;;;;;;23.45;59.16;100387.72;5026947;28;20432;-33
2023/07/01 09:28:38;;;;;;;5.78;3.65;;;;;;;23.47;58.90;100385.63;5015248;28;20073;-33
2023/07/01 09:31:07;;;;;;;7.50;3.97;;;;;;;23.49;58.08;100388.16;5012966;28;20065;-33
2023/07/01 09:33:35;;;;;;;6.00;3.63;;;;;;;23.53;58.24;100384.00;5013145;28;20046;-31
2023/07/01 09:36:03;;;;;;;3.25;2.45;;;;;;;23.51;58.62;100384.19;5014210;28;20803;-32
2023/07/01 09:38:31;;;;;;;8.13;3.33;;;;;;;23.56;58.65;100389.03;5014659;28;20181;-33
2023/07/01 09:41:33;;;;;;;6.43;4.13;;;;;;;23.59;58.52;100389.44;5018881;28;20136;-31
2023/07/01 09:44:00;;;;;;;5.60;3.70;;;;;;;23.64;58.18;100392.38;4976383;28;20049;-31
2023/07/01 09:46:42;;;;;;;8.07;4.15;;;;;;;23.67;57.85;100387.63;5010508;28;20453;-31
2023/07/01 09:49:09;;;;;;;11.32;3.60;;;;;;;23.72;57.50;100387.84;5017235;28;20053;-31
2023/07/01 09:51:50;;;;;;;6.47;4.03;;;;;;;23.75;57.34;100388.28;5016883;28;20116;-31
2023/07/01 09:54:27;;;;;;;5.35;3.47;;;;;;;23.80;56.88;100387.66;5011614;28;20045;-31
2023/07/01 09:56:56;;;;;;;6.18;3.28;;;;;;;23.84;56.89;100380.81;5011043;28;20049;-32
2023/07/01 09:59:23;;;;;;;36.22;24.40;;;;;;;23.89;56.64;100383.75;5010882;28;20287;-32
2023/07/01 10:01:54;;;;;;;21.85;13.52;;;;;;;23.92;56.48;100382.50;5010675;28;20151;-31
2023/07/01 10:04:25;;;;;;;19.80;13.20;;;;;;;23.96;55.97;100379.22;4972825;28;20138;-31
2023/07/01 10:06:54;;;;;;;18.10;12.00;;;;;;;23.98;55.57;100379.81;5014725;28;20056;-31
2023/07/01 10:09:23;;;;;;;14.50;9.50;;;;;;;24.01;56.14;100384.00;5011080;28;20113;-31
2023/07/01 10:11:53;;;;;;;13.95;8.63;;;;;;;24.04;56.03;100380.88;5011872;28;20057;-31
2023/07/01 10:14:23;;;;;;;11.73;7.15;;;;;;;24.05;55.86;100383.38;5015432;28;20134;-30
2023/07/01 10:16:49;;;;;;;11.10;6.40;;;;;;;24.06;56.15;100382.34;5017852;28;20050;-31
2023/07/01 10:19:28;;;;;;;10.23;6.15;;;;;;;24.06;56.29;100379.63;5018380;28;20319;-31
2023/07/01 10:22:24;;;;;;;12.32;5.60;;;;;;;24.04;56.77;100375.44;5023376;28;20064;-31
2023/07/01 10:25:03;;;;;;;7.35;5.00;;;;;;;24.04;56.91;100384.44;5005530;28;20514;-31
2023/07/01 10:28:09;;;;;;;8.32;4.47;;;;;;;24.04;56.98;100381.72;5013065;28;20326;-31
2023/07/01 10:30:42;;;;;;;8.27;4.30;;;;;;;24.09;56.29;100383.81;5022148;28;20371;-31
2023/07/01 10:33:27;;;;;;;6.05;3.88;;;;;;;24.03;57.55;100385.44;5017694;28;20096;-31
2023/07/01 10:36:07;;;;;;;10.80;4.22;;;;;;;24.02;57.19;100394.63;5012480;28;20519;-30
2023/07/01 10:38:35;;;;;;;7.18;4.28;;;;;;;24.03;56.80;100388.16;5014230;28;20049;-31
2023/07/01 10:41:03;;;;;;;10.02;3.95;;;;;;;24.03;56.84;100384.63;5017931;28;20057;-31
2023/07/01 10:43:37;;;;;;;9.80;4.75;;;;;;;24.03;57.02;100390.88;4984942;28;20084;-31
2023/07/01 10:46:23;;;;;;;9.13;3.78;;;;;;;24.03;57.30;100388.16;5025578;28;20049;-31
2023/07/01 10:49:03;;;;;;;7.75;3.75;;;;;;;24.05;56.75;100388.81;5025293;28;20080;-31
2023/07/01 10:51:33;;;;;;;6.88;4.30;;;;;;;24.06;56.52;100393.19;5021759;28;20429;-31
2023/07/01 10:54:05;;;;;;;5.63;3.80;;;;;;;24.05;57.01;100402.34;5019935;28;20085;-31
2023/07/01 10:56:38;;;;;;;8.98;3.53;;;;;;;24.05;56.76;100396.94;5022081;28;20053;-32
2023/07/01 10:59:29;;;;;;;8.85;4.35;;;;;;;24.05;56.24;100396.09;5036014;28;20146;-35
2023/07/01 11:01:59;;;;;;;5.28;3.40;;;;;;;24.07;56.63;100402.13;5020476;28;20531;-33
2023/07/01 11:04:55;;;;;;;7.97;3.20;;;;;;;24.04;57.17;100408.81;4999733;28;20463;-32
2023/07/01 11:07:27;;;;;;;6.15;3.13;;;;;;;24.05;56.39;100396.94;5010400;28;20058;-32
2023/07/01 11:09:55;;;;;;;4.47;3.10;;;;;;;24.05;56.34;100396.94;5021109;28;20060;-32
2023/07/01 11:12:26;;;;;;;6.28;3.67;;;;;;;24.07;56.16;100394.00;5013634;28;20054;-32
2023/07/01 11:14:54;;;;;;;31.30;18.92;;;;;;;24.09;56.67;100395.47;5016932;28;20049;-32
2023/07/01 11:17:23;;;;;;;16.40;10.18;;;;;;;24.11;56.29;100404.22;5017856;28;20441;-35
2023/07/01 11:19:57;;;;;;;15.90;9.10;;;;;;;24.11;56.25;100401.50;5013240;28;20053;-33
2023/07/01 11:22:24;;;;;;;14.88;8.52;;;;;;;24.12;56.48;100403.19;5011642;28;20056;-32
2023/07/01 11:24:50;;;;;;;12.55;7.72;;;;;;;24.10;56.01;100405.25;4986049;28;20114;-32
2023/07/01 11:27:17;;;;;;;12.52;6.32;;;;;;;24.11;56.38;100403.38;5024690;28;20497;-32
2023/07/01 11:29:45;;;;;;;14.55;7.10;;;;;;;24.08;56.46;100399.22;5012152;28;20349;-32
2023/07/01 11:32:14;;;;;;;11.27;6.70;;;;;;;24.09;56.22;100405.47;5014363;28;20056;-32